Time;durP1;ratioP1;P1;durP2;ratioP2;P2;SDS_P1;SDS_P2;PMS_P1;PMS_P2;Temp;Humidity;BMP_temperature;BMP_pressure;BME280_temperature;BME280_humidity;BME280_pressure;Samples;Min_cycle;Max_cycle;Signal;HPM_P1;HPM_P2
2023/01/14 00:01:18;;;;;;;0.40;0.40;;;;;;;5.53;100.00;98296.28;5025215;28;20062;-69
2023/01/14 00:03:44;;;;;;;0.50;0.50;;;;;;;5.48;100.00;98298.16;5028738;28;20033;-69
2023/01/14 00:06:15;;;;;;;0.50;0.50;;;;;;;5.46;100.00;98295.59;5028940;28;20025;-69
2023/01/14 00:08:41;;;;;;;0.50;0.50;;;;;;;5.43;100.00;98293.91;5028768;28;20033;-70
2023/01/14 00:11:08;;;;;;;0.50;0.50;;;;;;;5.36;100.00;98294.94;5028596;28;20259;-69
2023/01/14 00:13:36;;;;;;;0.47;0.47;;;;;;;5.31;100.00;98304.47;5028465;28;20032;-70
2023/01/14 00:16:03;;;;;;;0.50;0.50;;;;;;;5.27;100.00;98303.69;5028519;28;20052;-70
2023/01/14 00:18:31;;;;;;;0.50;0.50;;;;;;;5.19;100.00;98309.00;5028545;28;20025;-69
2023/01/14 00:20:58;;;;;;;0.50;0.50;;;;;;;5.19;100.00;98324.44;5028543;28;20048;-72
2023/01/14 00:23:24;;;;;;;0.50;0.50;;;;;;;5.12;100.00;98320.31;5028442;28;20026;-71
2023/01/14 00:25:50;;;;;;;50.83;5.25;;;;;;;5.07;100.00;98327.25;5043532;28;20057;-72
2023/01/14 00:28:15;;;;;;;0.40;0.40;;;;;;;5.03;100.00;98331.59;5028220;28;20052;-72
2023/01/14 00:30:43;;;;;;;0.50;0.50;;;;;;;4.94;100.00;98337.78;5028322;28;20037;-74
2023/01/14 00:33:09;;;;;;;0.50;0.50;;;;;;;4.91;100.00;98335.25;5028235;28;20041;-73
2023/01/14 00:35:34;;;;;;;0.50;0.50;;;;;;;4.86;100.00;98337.06;5028077;28;20034;-72
2023/01/14 00:38:00;;;;;;;0.50;0.50;;;;;;;4.88;100.00;98342.19;5028256;28;20030;-72
2023/01/14 00:40:25;;;;;;;0.50;0.50;;;;;;;4.86;100.00;98352.50;5027845;28;20085;-71
2023/01/14 00:42:51;;;;;;;0.50;0.50;;;;;;;4.78;100.00;98350.06;5027754;28;20034;-70
2023/01/14 00:45:16;;;;;;;0.50;0.50;;;;;;;4.78;100.00;98359.50;5028228;28;20030;-71
2023/01/14 00:47:41;;;;;;;0.43;0.43;;;;;;;4.74;100.00;98363.88;5028096;28;20037;-70
2023/01/14 00:50:08;;;;;;;0.50;0.50;;;;;;;4.75;100.00;98380.13;5027987;28;20026;-70
2023/01/14 00:52:33;;;;;;;0.50;0.50;;;;;;;4.73;100.00;98376.75;5028021;28;20033;-71
2023/01/14 00:54:58;;;;;;;0.50;0.50;;;;;;;4.73;100.00;98381.88;5027774;28;20110;-71
2023/01/14 00:57:24;;;;;;;0.50;0.50;;;;;;;4.57;100.00;98370.13;5027731;28;20092;-70
2023/01/14 00:59:49;;;;;;;0.50;0.50;;;;;;;4.64;100.00;98377.72;5027686;28;20030;-70
2023/01/14 01:02:15;;;;;;;0.50;0.50;;;;;;;4.65;100.00;98384.59;5027696;28;20026;-71
2023/01/14 01:04:40;;;;;;;0.50;0.50;;;;;;;4.61;100.00;98382.94;5027470;28;20112;-70
2023/01/14 01:07:05;;;;;;;0.45;0.45;;;;;;;4.58;100.00;98409.53;5027718;28;20032;-71
2023/01/14 01:09:31;;;;;;;0.50;0.50;;;;;;;4.54;100.00;98413.00;5027324;28;20028;-70
2023/01/14 01:11:56;;;;;;;0.40;0.40;;;;;;;4.54;100.00;98405.31;5042052;28;20034;-70
2023/01/14 01:14:23;;;;;;;0.50;0.50;;;;;;;4.53;100.00;98422.47;5026851;28;20021;-71
2023/01/14 01:16:49;;;;;;;0.50;0.50;;;;;;;4.50;100.00;98427.66;5027405;28;20366;-71
2023/01/14 01:19:15;;;;;;;0.50;0.50;;;;;;;4.50;100.00;98439.63;5042639;28;20021;-70
2023/01/14 01:21:40;;;;;;;0.50;0.50;;;;;;;4.47;100.00;98438.81;5027590;28;20478;-70
2023/01/14 01:24:06;;;;;;;0.50;0.50;;;;;;;4.50;100.00;98442.22;5027370;28;20482;-70
2023/01/14 01:26:31;;;;;;;0.50;0.50;;;;;;;4.46;100.00;98442.25;5027193;28;20029;-70
2023/01/14 01:28:58;;;;;;;0.50;0.50;;;;;;;4.49;100.00;98450.81;5026973;28;20037;-69
2023/01/14 01:31:24;;;;;;;0.50;0.50;;;;;;;4.46;100.00;98454.25;5027078;28;20018;-70
2023/01/14 01:33:49;;;;;;;0.50;0.50;;;;;;;4.51;100.00;98474.75;5027249;28;20053;-70
2023/01/14 01:36:20;;;;;;;0.50;0.50;;;;;;;4.50;100.00;98473.91;5027002;28;20033;-70
2023/01/14 01:38:47;;;;;;;0.70;0.70;;;;;;;4.50;100.00;98478.19;5042272;28;20021;-70
2023/01/14 01:41:22;;;;;;;0.55;0.55;;;;;;;4.51;100.00;98480.72;5026765;28;20046;-71
2023/01/14 01:44:27;;;;;;;0.60;0.60;;;;;;;4.51;100.00;98491.00;5026887;28;20026;-70
2023/01/14 01:46:53;;;;;;;0.50;0.50;;;;;;;4.46;100.00;98488.50;5026609;28;20057;-70
2023/01/14 01:49:31;;;;;;;0.45;0.45;;;;;;;4.44;100.00;98492.81;5026853;28;20030;-70
2023/01/14 01:52:17;;;;;;;0.50;0.50;;;;;;;4.47;100.00;98508.19;5026960;28;20466;-70
2023/01/14 01:54:48;;;;;;;0.50;0.50;;;;;;;4.46;100.00;98513.34;5026563;28;20034;-70
2023/01/14 01:57:16;;;;;;;0.60;0.60;;;;;;;4.44;100.00;98523.66;5026734;28;20033;-70
2023/01/14 01:59:48;;;;;;;0.50;0.50;;;;;;;4.44;100.00;98525.41;5026551;28;20030;-69
2023/01/14 02:02:15;;;;;;;0.50;0.50;;;;;;;4.41;100.00;98526.25;5026417;28;20113;-69
2023/01/14 02:04:40;;;;;;;0.50;0.50;;;;;;;4.44;100.00;98536.50;5026756;28;20029;-68
2023/01/14 02:07:20;;;;;;;0.50;0.50;;;;;;;4.44;100.00;98544.22;5026414;28;20033;-69
2023/01/14 02:09:49;;;;;;;0.50;0.50;;;;;;;4.45;100.00;98552.78;5026538;28;20036;-69
2023/01/14 02:12:36;;;;;;;0.50;0.50;;;;;;;4.44;100.00;98551.09;5026371;28;20052;-69
2023/01/14 02:15:23;;;;;;;0.50;0.50;;;;;;;4.45;100.00;98558.78;5026115;28;20037;-68
2023/01/14 02:17:54;;;;;;;0.50;0.50;;;;;;;4.44;100.00;98557.06;5026276;28;20533;-68
2023/01/14 02:20:26;;;;;;;0.50;0.50;;;;;;;4.44;100.00;98564.75;5026294;28;20437;-69
2023/01/14 02:23:10;;;;;;;0.60;0.60;;;;;;;4.44;100.00;98563.94;5026170;28;20030;-68
2023/01/14 02:25:54;;;;;;;0.50;0.50;;;;;;;4.45;100.00;98566.47;5041070;28;20032;-68
2023/01/14 02:28:54;;;;;;;0.50;0.50;;;;;;;4.45;100.00;98573.34;5025831;28;20026;-67
2023/01/14 02:31:32;;;;;;;0.50;0.50;;;;;;;4.44;100.00;98582.75;5026424;28;20129;-69
2023/01/14 02:34:00;;;;;;;0.50;0.50;;;;;;;4.45;100.00;98584.47;5025759;28;20026;-69
2023/01/14 02:36:47;;;;;;;0.50;0.50;;;;;;;4.47;100.00;98582.72;5041053;28;20029;-68
2023/01/14 02:39:26;;;;;;;0.40;0.40;;;;;;;4.47;100.00;98582.72;5025932;28;20053;-68
2023/01/14 02:44:42;;;;;;;0.50;0.50;;;;;;;4.52;100.00;98589.53;5025811;28;20102;-69
2023/01/14 02:47:18;;;;;;;0.50;0.50;;;;;;;4.50;100.00;98588.69;5025581;28;20025;-69
2023/01/14 02:49:48;;;;;;;0.60;0.60;;;;;;;4.52;100.00;98594.66;5025613;28;20077;-68
2023/01/14 02:52:13;;;;;;;0.50;0.50;;;;;;;4.55;100.00;98598.03;5025581;28;20112;-69
2023/01/14 02:54:39;;;;;;;0.50;0.50;;;;;;;4.54;100.00;98593.78;5025695;28;20363;-68
2023/01/14 02:57:26;;;;;;;0.45;0.45;;;;;;;4.53;100.00;98597.22;5024293;28;20422;-68
2023/01/14 03:00:04;;;;;;;0.50;0.50;;;;;;;4.57;100.00;98604.00;5025463;28;20079;-69
2023/01/14 03:02:29;;;;;;;0.50;0.50;;;;;;;4.58;100.00;98605.69;5025582;28;20049;-68
2023/01/14 03:05:03;;;;;;;0.50;0.50;;;;;;;4.59;100.00;98611.69;5025509;28;20034;-67
2023/01/14 03:07:35;;;;;;;0.50;0.50;;;;;;;4.58;100.00;98615.16;5040417;28;20094;-70
2023/01/14 03:10:04;;;;;;;0.60;0.60;;;;;;;4.60;100.00;98618.53;5025469;28;20048;-68
2023/01/14 03:12:37;;;;;;;0.70;0.70;;;;;;;4.63;100.00;98628.81;5025396;28;20060;-68
2023/01/14 03:15:32;;;;;;;0.50;0.50;;;;;;;4.66;100.00;98633.91;5023923;28;20025;-67
2023/01/14 03:18:04;;;;;;;0.50;0.50;;;;;;;4.65;100.00;98639.88;5016270;28;20105;-68
2023/01/14 03:20:34;;;;;;;0.63;0.63;;;;;;;4.65;100.00;98639.06;5025431;28;20026;-67
2023/01/14 03:23:05;;;;;;;0.50;0.50;;;;;;;4.65;100.00;98641.63;5025362;28;20037;-67
2023/01/14 03:25:35;;;;;;;0.60;0.60;;;;;;;4.62;100.00;98641.66;5040383;28;20033;-67
2023/01/14 03:28:02;;;;;;;0.50;0.50;;;;;;;4.61;100.00;98648.53;5025092;28;20339;-67
2023/01/14 03:30:33;;;;;;;0.50;0.50;;;;;;;4.65;100.00;98650.16;5024104;28;20022;-68
2023/01/14 03:33:05;;;;;;;0.60;0.60;;;;;;;4.65;100.00;98652.75;5025417;28;20052;-68
2023/01/14 03:35:34;;;;;;;0.50;0.50;;;;;;;4.69;100.00;98662.13;5025794;28;20037;-67
2023/01/14 03:38:10;;;;;;;0.50;0.50;;;;;;;4.72;100.00;98666.38;5029288;28;20022;-68
2023/01/14 03:40:37;;;;;;;0.50;0.50;;;;;;;4.68;100.00;98659.59;5044218;28;20050;-69
2023/01/14 03:43:39;;;;;;;0.50;0.50;;;;;;;4.74;100.00;98663.78;5029023;28;20458;-68
2023/01/14 03:46:05;;;;;;;0.60;0.60;;;;;;;4.72;100.00;98658.66;5021839;28;20034;-69
2023/01/14 03:48:31;;;;;;;0.50;0.50;;;;;;;4.67;100.00;98658.72;5029136;28;20133;-66
2023/01/14 03:51:14;;;;;;;0.45;0.45;;;;;;;4.62;100.00;98655.34;5029028;28;20025;-70
2023/01/14 03:54:05;;;;;;;0.50;0.50;;;;;;;4.51;100.00;98662.34;5028993;28;20092;-70
2023/01/14 03:56:57;;;;;;;0.50;0.50;;;;;;;4.46;100.00;98677.81;5027606;28;20033;-70
2023/01/14 03:59:34;;;;;;;0.50;0.50;;;;;;;4.37;100.00;98672.78;5028913;28;20025;-69
2023/01/14 04:02:03;;;;;;;0.50;0.50;;;;;;;4.37;100.00;98689.06;5028847;28;20033;-70
2023/01/14 04:04:30;;;;;;;0.60;0.60;;;;;;;4.22;100.00;98672.94;5028811;28;20068;-70
2023/01/14 04:06:55;;;;;;;0.50;0.50;;;;;;;4.34;100.00;98694.22;5028582;28;20030;-70
2023/01/14 04:09:21;;;;;;;0.45;0.45;;;;;;;4.36;100.00;98701.91;5028621;28;20029;-70
2023/01/14 04:11:46;;;;;;;0.60;0.60;;;;;;;4.38;100.00;98695.06;5028674;28;20033;-70
2023/01/14 04:16:56;;;;;;;0.50;0.50;;;;;;;4.46;100.00;98708.66;5028681;28;20041;-73
2023/01/14 04:19:21;;;;;;;0.50;0.50;;;;;;;4.52;100.00;98712.88;5043784;28;20014;-73
2023/01/14 04:21:46;;;;;;;0.50;0.50;;;;;;;4.55;100.00;98711.13;5028501;28;20030;-74
2023/01/14 04:24:12;;;;;;;0.50;0.50;;;;;;;4.58;100.00;98728.25;5028479;28;20478;-73
2023/01/14 04:26:37;;;;;;;0.50;0.50;;;;;;;4.60;100.00;98731.63;5028266;28;20029;-72
2023/01/14 04:29:04;;;;;;;0.50;0.50;;;;;;;4.59;100.00;98728.22;5028127;28;20030;-71
2023/01/14 04:31:29;;;;;;;0.50;0.50;;;;;;;4.64;100.00;98724.75;5028295;28;20064;-70
2023/01/14 04:33:55;;;;;;;0.50;0.50;;;;;;;4.67;100.00;98735.84;5028409;28;20029;-69
2023/01/14 04:36:20;;;;;;;0.50;0.50;;;;;;;4.69;100.00;98738.41;5028104;28;20060;-69
2023/01/14 04:38:45;;;;;;;0.50;0.50;;;;;;;4.69;100.00;98740.97;5028204;28;20026;-69
2023/01/14 04:42:26;;;;;;;0.50;0.50;;;;;;;4.73;100.00;98740.06;5043120;28;20580;-69
2023/01/14 04:43:57;;;;;;;0.50;0.50;;;;;;;4.68;100.00;98737.53;5027662;28;20593;-70
2023/01/14 04:46:22;;;;;;;0.50;0.50;;;;;;;4.75;100.00;98745.19;5043090;28;20029;-69
2023/01/14 04:48:47;;;;;;;0.50;0.50;;;;;;;4.74;100.00;98744.34;5028020;28;20030;-68
2023/01/14 04:51:13;;;;;;;0.50;0.50;;;;;;;4.71;100.00;98750.34;5027854;28;20025;-68
2023/01/14 04:53:38;;;;;;;0.50;0.50;;;;;;;4.68;100.00;98745.25;5027875;28;20093;-67
2023/01/14 04:56:04;;;;;;;0.50;0.50;;;;;;;4.71;100.00;98750.34;5027825;28;20093;-67
2023/01/14 04:58:29;;;;;;;0.50;0.50;;;;;;;4.71;100.00;98755.50;5027757;28;20018;-68
2023/01/14 05:00:55;;;;;;;0.50;0.50;;;;;;;4.69;100.00;98762.41;5027663;28;20017;-67
2023/01/14 05:03:20;;;;;;;0.50;0.50;;;;;;;4.64;100.00;98750.44;5026506;28;20537;-68
2023/01/14 05:05:46;;;;;;;0.50;0.50;;;;;;;4.63;100.00;98741.91;5027498;28;20390;-68
2023/01/14 05:08:14;;;;;;;0.50;0.50;;;;;;;4.64;100.00;98735.88;5026341;28;20022;-68
2023/01/14 05:10:40;;;;;;;0.50;0.50;;;;;;;4.62;100.00;98753.03;5027772;28;20462;-68
2023/01/14 05:13:07;;;;;;;0.50;0.50;;;;;;;4.53;100.00;98756.56;5027389;28;20037;-68
2023/01/14 05:15:38;;;;;;;0.50;0.50;;;;;;;4.44;100.00;98759.22;5027410;28;20113;-68
2023/01/14 05:18:05;;;;;;;0.55;0.55;;;;;;;4.38;100.00;98767.84;5027379;28;20419;-68
2023/01/14 05:20:30;;;;;;;0.50;0.50;;;;;;;4.28;100.00;98769.63;5027482;28;20034;-68
2023/01/14 05:23:00;;;;;;;0.50;0.50;;;;;;;4.29;100.00;98778.19;5027533;28;20449;-69
2023/01/14 05:25:27;;;;;;;0.50;0.50;;;;;;;4.22;100.00;98774.81;5027095;28;20573;-69
2023/01/14 05:27:53;;;;;;;0.50;0.50;;;;;;;4.22;100.00;98792.81;5027131;28;20030;-69
2023/01/14 05:30:18;;;;;;;0.60;0.60;;;;;;;4.19;100.00;98792.84;5027035;28;20030;-69
2023/01/14 05:32:43;;;;;;;0.50;0.50;;;;;;;4.17;100.00;98794.59;5027070;28;20026;-69
2023/01/14 05:35:09;;;;;;;0.50;0.50;;;;;;;4.15;100.00;98798.88;5026938;28;20489;-69
2023/01/14 05:37:34;;;;;;;0.40;0.40;;;;;;;4.15;100.00;98804.00;5026961;28;20077;-69
2023/01/14 05:40:01;;;;;;;0.50;0.50;;;;;;;4.25;100.00;98810.75;5026815;28;20127;-70
2023/01/14 05:47:55;;;;;;;0.50;0.50;;;;;;;4.43;100.00;98817.47;5026742;28;20037;-70
2023/01/14 05:50:21;;;;;;;0.50;0.50;;;;;;;4.46;100.00;98812.31;5026804;28;20025;-70
2023/01/14 05:52:46;;;;;;;0.50;0.50;;;;;;;4.45;100.00;98815.75;5026896;28;20637;-70
2023/01/14 05:55:12;;;;;;;0.50;0.50;;;;;;;4.47;100.00;98808.03;5026301;28;20378;-72
2023/01/14 05:57:37;;;;;;;0.50;0.50;;;;;;;4.56;100.00;98827.63;5026916;28;20351;-71
2023/01/14 06:00:04;;;;;;;0.50;0.50;;;;;;;4.64;100.00;98825.84;5025572;28;20060;-73
2023/01/14 06:08:01;;;;;;;0.57;0.57;;;;;;;4.75;100.00;98832.59;5026390;28;20041;-74
2023/01/14 06:10:27;;;;;;;0.50;0.50;;;;;;;4.77;100.00;98833.44;5026370;28;20030;-74
2023/01/14 06:12:58;;;;;;;0.50;0.50;;;;;;;4.79;100.00;98840.25;5026440;28;20025;-74
2023/01/14 06:15:29;;;;;;;0.40;0.40;;;;;;;4.82;100.00;98844.53;5041313;28;20060;-74
2023/01/14 06:17:58;;;;;;;0.50;0.50;;;;;;;4.78;100.00;98833.41;5026201;28;20049;-73
2023/01/14 06:20:25;;;;;;;0.50;0.50;;;;;;;4.77;100.00;98841.16;5026149;28;20029;-74
2023/01/14 06:22:55;;;;;;;0.50;0.50;;;;;;;4.83;100.00;98856.50;5026156;28;20021;-75
2023/01/14 06:25:20;;;;;;;0.50;0.50;;;;;;;4.79;100.00;98860.00;5024553;28;20018;-74
2023/01/14 06:27:46;;;;;;;0.40;0.40;;;;;;;4.66;100.00;98847.25;5026108;28;20032;-74
2023/01/14 06:30:12;;;;;;;0.50;0.50;;;;;;;4.65;100.00;98847.28;5025876;28;20021;-74
2023/01/14 06:32:37;;;;;;;0.50;0.50;;;;;;;4.65;100.00;98858.38;5041199;28;20029;-73
2023/01/14 06:35:03;;;;;;;0.50;0.50;;;;;;;4.77;100.00;98872.00;5024637;28;20033;-74
2023/01/14 06:37:28;;;;;;;0.50;0.50;;;;;;;4.72;100.00;98851.47;5026002;28;20026;-73
2023/01/14 06:39:53;;;;;;;0.50;0.50;;;;;;;4.70;100.00;98859.22;5040930;28;20041;-74
2023/01/14 06:42:19;;;;;;;0.50;0.50;;;;;;;4.70;100.00;98866.91;5026005;28;20053;-74
2023/01/14 06:44:45;;;;;;;0.50;0.50;;;;;;;4.74;100.00;98869.47;5025806;28;20021;-74
2023/01/14 06:47:10;;;;;;;0.50;0.50;;;;;;;4.73;100.00;98870.34;5041508;28;20387;-75
2023/01/14 06:49:35;;;;;;;0.50;0.50;;;;;;;4.56;100.00;98843.06;5025695;28;20262;-73
2023/01/14 06:52:01;;;;;;;0.50;0.50;;;;;;;4.74;100.00;98866.91;5025645;28;20026;-74
2023/01/14 06:54:27;;;;;;;0.50;0.50;;;;;;;4.68;100.00;98857.53;5040988;28;20026;-75
2023/01/14 06:56:52;;;;;;;0.50;0.50;;;;;;;4.69;100.00;98877.22;5025512;28;20037;-76
2023/01/14 06:59:17;;;;;;;0.50;0.50;;;;;;;4.66;100.00;98870.41;5025487;28;20085;-75
2023/01/14 07:01:43;;;;;;;0.50;0.50;;;;;;;4.57;100.00;98863.59;5025503;28;20029;-75
2023/01/14 07:04:08;;;;;;;0.45;0.45;;;;;;;4.64;100.00;98877.25;5024200;28;20068;-75
2023/01/14 07:06:34;;;;;;;0.50;0.50;;;;;;;4.62;100.00;98878.16;5025581;28;20034;-73
2023/01/14 07:08:59;;;;;;;0.43;0.43;;;;;;;4.55;100.00;98872.22;5025630;28;20390;-74
2023/01/14 07:11:24;;;;;;;0.50;0.50;;;;;;;4.55;100.00;98878.19;5025261;28;20029;-74
2023/01/14 07:13:50;;;;;;;0.50;0.50;;;;;;;4.59;100.00;98890.16;5040836;28;20036;-73
2023/01/14 07:16:15;;;;;;;0.50;0.50;;;;;;;4.54;100.00;98878.19;5025995;28;20021;-74
2023/01/14 07:18:40;;;;;;;0.50;0.50;;;;;;;4.59;100.00;98890.16;5024257;28;20022;-72
2023/01/14 07:21:06;;;;;;;0.50;0.50;;;;;;;4.62;100.00;98894.41;5025356;28;20055;-72
2023/01/14 07:23:31;;;;;;;0.50;0.50;;;;;;;4.59;100.00;98889.28;5040599;28;20129;-73
2023/01/14 07:25:57;;;;;;;0.50;0.50;;;;;;;4.61;100.00;98879.00;5025369;28;20029;-73
2023/01/14 07:28:27;;;;;;;0.50;0.50;;;;;;;4.69;99.76;98902.94;5039978;28;20034;-73
2023/01/14 07:30:53;;;;;;;0.50;0.50;;;;;;;4.70;99.77;98902.06;5040496;28;20025;-72
2023/01/14 07:33:20;;;;;;;0.55;0.55;;;;;;;4.65;99.39;98904.66;5025321;28;20064;-72
2023/01/14 07:35:47;;;;;;;0.50;0.50;;;;;;;4.65;99.61;98902.09;5025193;28;20117;-73
2023/01/14 07:38:12;;;;;;;0.50;0.50;;;;;;;4.73;99.93;98904.59;5025342;28;20029;-72
2023/01/14 07:40:38;;;;;;;0.50;0.50;;;;;;;4.66;99.56;98901.25;5024982;28;20088;-73
2023/01/14 07:43:03;;;;;;;0.43;0.43;;;;;;;4.69;99.09;98902.94;5025208;28;20470;-71
2023/01/14 07:45:29;;;;;;;17.65;3.25;;;;;;;4.74;99.10;98911.47;5024995;28;20477;-71
2023/01/14 07:47:56;;;;;;;0.50;0.50;;;;;;;4.75;99.63;98920.00;5025231;28;20060;-68
2023/01/14 07:50:22;;;;;;;0.50;0.50;;;;;;;4.72;99.14;98920.91;5023897;28;20025;-68
2023/01/14 07:52:58;;;;;;;0.50;0.50;;;;;;;4.74;98.84;98920.88;5025204;28;20022;-69
2023/01/14 07:55:24;;;;;;;0.50;0.50;;;;;;;4.75;98.77;98910.59;5040369;28;20054;-69
2023/01/14 07:57:50;;;;;;;0.50;0.50;;;;;;;4.76;98.08;98930.28;5040469;28;20026;-69
2023/01/14 08:00:16;;;;;;;0.50;0.50;;;;;;;4.80;98.43;98938.81;5024877;28;20080;-68
2023/01/14 08:02:41;;;;;;;0.60;0.60;;;;;;;4.74;97.79;98920.88;5040254;28;20026;-67
2023/01/14 08:05:07;;;;;;;0.50;0.50;;;;;;;4.82;97.89;98939.69;5025199;28;20168;-68
2023/01/14 08:07:33;;;;;;;0.50;0.50;;;;;;;4.78;96.85;98949.13;5024953;28;20036;-67
2023/01/14 08:09:58;;;;;;;0.50;0.50;;;;;;;4.79;96.90;98952.56;5040161;28;20026;-68
2023/01/14 08:12:24;;;;;;;0.50;0.50;;;;;;;4.78;96.64;98954.28;5025084;28;20122;-68
2023/01/14 08:14:49;;;;;;;0.50;0.50;;;;;;;4.76;97.63;98953.41;5040067;28;20101;-68
2023/01/14 08:17:15;;;;;;;0.50;0.50;;;;;;;4.78;96.47;98955.97;5040203;28;20029;-68
2023/01/14 08:19:40;;;;;;;0.50;0.50;;;;;;;4.88;97.20;98967.03;5040282;28;20017;-68
2023/01/14 08:22:06;;;;;;;0.60;0.60;;;;;;;4.88;96.93;98974.75;5026371;28;20032;-68
2023/01/14 08:24:31;;;;;;;0.50;0.50;;;;;;;4.84;96.43;98961.94;5028618;28;20424;-68
2023/01/14 08:26:56;;;;;;;0.50;0.50;;;;;;;4.90;96.23;98971.34;5028380;28;20024;-68
2023/01/14 08:29:22;;;;;;;0.50;0.50;;;;;;;4.92;96.16;98974.72;5028246;28;20029;-68
2023/01/14 08:31:54;;;;;;;0.50;0.50;;;;;;;4.94;96.26;98980.72;5028531;28;20044;-68
2023/01/14 08:34:21;;;;;;;1.90;1.85;;;;;;;4.95;95.93;98973.88;5028452;28;20078;-68
2023/01/14 08:36:48;;;;;;;0.50;0.50;;;;;;;4.93;94.87;98978.16;5028133;28;20037;-68
2023/01/14 08:39:13;;;;;;;0.50;0.50;;;;;;;4.93;94.90;98993.59;5028135;28;20049;-68
2023/01/14 08:41:39;;;;;;;0.65;0.65;;;;;;;4.96;94.42;98986.72;5028360;28;20037;-68
2023/01/14 08:44:04;;;;;;;0.50;0.50;;;;;;;5.04;96.09;98983.22;5028043;28;20061;-68
2023/01/14 08:46:30;;;;;;;0.50;0.50;;;;;;;5.10;97.15;98982.31;5028047;28;20025;-67
2023/01/14 08:48:55;;;;;;;0.98;0.98;;;;;;;5.36;98.40;98992.34;5028226;28;20018;-67
2023/01/14 08:51:26;;;;;;;7.88;6.63;;;;;;;5.57;97.75;98990.44;5027946;28;20021;-66
2023/01/14 08:53:51;;;;;;;0.50;0.50;;;;;;;5.78;98.25;98991.06;5026688;28;20025;-66
2023/01/14 08:56:17;;;;;;;0.50;0.50;;;;;;;5.88;97.72;98994.38;5026489;28;20089;-66
2023/01/14 08:58:43;;;;;;;0.50;0.50;;;;;;;5.94;97.13;98996.88;5027873;28;20018;-66
2023/01/14 09:01:09;;;;;;;0.50;0.50;;;;;;;5.92;95.87;98991.75;5027621;28;20079;-72
2023/01/14 09:03:36;;;;;;;0.50;0.50;;;;;;;5.92;95.23;98998.63;5027787;28;20466;-72
2023/01/14 09:06:08;;;;;;;0.50;0.50;;;;;;;5.80;94.50;99000.47;5027435;28;20042;-75
2023/01/14 09:17:08;;;;;;;0.50;0.50;;;;;;;5.49;92.95;99005.97;5027416;28;20040;-74
2023/01/14 09:19:39;;;;;;;0.50;0.50;;;;;;;5.42;93.10;99002.59;5027625;28;20326;-75
2023/01/14 09:22:06;;;;;;;0.50;0.50;;;;;;;5.39;92.78;99001.75;5027123;28;20032;-75
2023/01/14 09:24:32;;;;;;;0.50;0.50;;;;;;;5.35;92.98;99016.41;5025908;28;20064;-75
2023/01/14 09:26:57;;;;;;;0.50;0.50;;;;;;;5.32;92.22;99000.94;5027194;28;20031;-75
2023/01/14 09:29:23;;;;;;;0.65;0.65;;;;;;;5.32;91.20;99018.97;5042166;28;20036;-72
2023/01/14 09:31:48;;;;;;;2.80;2.70;;;;;;;5.25;91.20;99013.03;5042159;28;20053;-71
2023/01/14 09:34:13;;;;;;;0.50;0.50;;;;;;;5.15;89.76;99017.41;5026185;28;20486;-74
2023/01/14 09:36:39;;;;;;;0.50;0.50;;;;;;;5.06;88.41;99012.34;5026893;28;20021;-75
2023/01/14 09:39:05;;;;;;;0.50;0.50;;;;;;;5.09;89.30;99022.63;5025821;28;20419;-78
2023/01/14 09:41:36;;;;;;;2.53;2.42;;;;;;;5.04;89.78;99016.66;5026948;28;20557;-78
2023/01/14 09:44:07;;;;;;;0.50;0.50;;;;;;;5.00;88.99;99017.53;5027000;28;20034;-78
2023/01/14 09:46:33;;;;;;;0.75;0.75;;;;;;;4.94;89.05;99016.72;5026901;28;20034;-76
2023/01/14 09:49:05;;;;;;;0.45;0.45;;;;;;;4.94;89.32;99021.00;5042409;28;20026;-77
2023/01/14 09:51:55;;;;;;;0.50;0.50;;;;;;;5.21;92.65;99026.78;5027020;28;20030;-75
2023/01/14 09:54:27;;;;;;;0.45;0.45;;;;;;;5.90;94.42;99020.94;5026476;28;20025;-77
2023/01/14 09:57:08;;;;;;;0.50;0.50;;;;;;;6.85;92.38;99017.16;5026862;28;20132;-78
2023/01/14 09:59:57;;;;;;;0.40;0.40;;;;;;;7.60;89.15;99021.06;5026847;28;20478;-77
2023/01/14 10:02:38;;;;;;;0.40;0.40;;;;;;;8.51;87.76;99014.06;5026628;28;20061;-77
2023/01/14 10:05:33;;;;;;;0.50;0.50;;;;;;;8.75;83.52;99023.03;5026525;28;20432;-77
2023/01/14 10:08:07;;;;;;;0.50;0.50;;;;;;;7.95;82.22;99026.44;5042099;28;20060;-76
2023/01/14 10:10:35;;;;;;;0.43;0.43;;;;;;;7.15;83.28;99027.00;5042569;28;20081;-78
2023/01/14 10:13:15;;;;;;;0.40;0.40;;;;;;;6.93;85.98;99042.84;5025427;28;20030;-78
2023/01/14 10:15:54;;;;;;;0.40;0.40;;;;;;;6.51;85.92;99033.97;5025265;28;20026;-77
2023/01/14 10:18:22;;;;;;;0.50;0.50;;;;;;;6.26;85.44;99038.59;5026428;28;20086;-77
2023/01/14 10:20:53;;;;;;;0.50;0.50;;;;;;;6.06;86.25;99037.97;5041652;28;20048;-77
2023/01/14 10:23:26;;;;;;;0.40;0.40;;;;;;;5.86;87.22;99037.31;5041424;28;20108;-76
2023/01/14 10:25:56;;;;;;;4.10;3.45;;;;;;;5.73;87.66;99039.19;5024745;28;20018;-77
2023/01/14 10:28:25;;;;;;;1.80;1.38;;;;;;;5.50;87.39;99024.81;5041312;28;20049;-78
2023/01/14 10:30:51;;;;;;;0.50;0.50;;;;;;;5.52;87.52;99041.97;5026167;28;20046;-77
2023/01/14 10:33:20;;;;;;;0.50;0.50;;;;;;;5.35;87.80;99029.25;5024941;28;20033;-78
2023/01/14 10:35:52;;;;;;;0.50;0.50;;;;;;;5.23;88.47;99026.78;5024617;28;20029;-78
2023/01/14 10:38:23;;;;;;;0.50;0.50;;;;;;;5.14;88.71;99014.84;5025959;28;20114;-77
2023/01/14 10:40:52;;;;;;;0.60;0.60;;;;;;;5.19;89.50;99033.69;5024259;28;20081;-77
2023/01/14 10:43:37;;;;;;;0.50;0.50;;;;;;;5.12;90.26;99030.31;5041052;28;20132;-76
2023/01/14 10:46:05;;;;;;;0.43;0.43;;;;;;;5.18;90.80;99031.97;5025579;28;20079;-76
2023/01/14 10:48:51;;;;;;;0.50;0.50;;;;;;;5.23;90.97;99026.78;5041247;28;20056;-77
2023/01/14 10:51:38;;;;;;;0.50;0.50;;;;;;;5.21;91.05;99030.22;5040952;28;20026;-75
2023/01/14 10:54:24;;;;;;;0.60;0.60;;;;;;;5.25;91.03;99045.63;5025708;28;20033;-75
2023/01/14 10:56:58;;;;;;;0.50;0.50;;;;;;;5.21;91.03;99045.66;5040743;28;20109;-75
2023/01/14 10:59:49;;;;;;;0.50;0.50;;;;;;;5.20;90.81;99041.41;5040641;28;20025;-75
2023/01/14 11:02:48;;;;;;;0.50;0.50;;;;;;;5.24;91.32;99036.22;5040915;28;20382;-76
2023/01/14 11:05:31;;;;;;;0.50;0.50;;;;;;;5.25;91.55;99032.78;5022919;28;20041;-74
2023/01/14 11:07:59;;;;;;;0.50;0.50;;;;;;;5.32;91.72;99029.25;5024028;28;20053;-75
2023/01/14 11:10:28;;;;;;;0.50;0.50;;;;;;;5.35;91.84;99029.25;5040765;28;20079;-77
2023/01/14 11:13:13;;;;;;;1.02;1.02;;;;;;;5.37;91.26;99030.06;5024233;28;20032;-76
2023/01/14 11:15:41;;;;;;;0.50;0.50;;;;;;;5.39;91.05;99037.78;5040706;28;20021;-76
2023/01/14 11:18:18;;;;;;;0.43;0.43;;;;;;;5.40;91.60;99042.91;5040679;28;20372;-74
2023/01/14 11:20:59;;;;;;;0.50;0.50;;;;;;;5.36;91.29;99041.25;5040640;28;20030;-76
2023/01/14 11:23:31;;;;;;;0.60;0.60;;;;;;;5.37;91.17;99036.97;5025166;28;20022;-75
2023/01/14 11:26:03;;;;;;;0.60;0.60;;;;;;;5.29;90.75;99022.44;5025345;28;20029;-77
2023/01/14 11:28:29;;;;;;;0.88;0.88;;;;;;;5.35;91.10;99024.13;5025174;28;20062;-75
2023/01/14 11:30:56;;;;;;;0.50;0.50;;;;;;;5.39;91.16;99025.78;5025345;28;20021;-76
2023/01/14 11:33:24;;;;;;;0.50;0.50;;;;;;;5.38;91.33;99018.06;5024056;28;20032;-74
2023/01/14 11:35:54;;;;;;;0.50;0.50;;;;;;;5.45;90.58;99037.72;5040585;28;20396;-75
2023/01/14 11:38:21;;;;;;;0.50;0.50;;;;;;;5.43;90.27;99030.00;5008939;28;20041;-75
2023/01/14 11:43:59;;;;;;;0.50;0.50;;;;;;;5.45;90.53;99018.00;5025494;28;20037;-75
2023/01/14 11:46:24;;;;;;;0.50;0.50;;;;;;;5.41;90.12;99011.19;5025246;28;20029;-74
2023/01/14 11:49:13;;;;;;;0.50;0.50;;;;;;;5.45;90.98;99020.56;5023840;28;20018;-74
2023/01/14 11:51:40;;;;;;;0.50;0.50;;;;;;;5.43;91.09;99027.44;5025355;28;20018;-75
2023/01/14 11:54:18;;;;;;;0.50;0.50;;;;;;;5.45;90.59;99022.28;5023783;28;20038;-74
2023/01/14 11:56:46;;;;;;;0.47;0.47;;;;;;;5.38;90.61;99018.06;5024472;28;20030;-75
2023/01/14 11:59:26;;;;;;;0.50;0.50;;;;;;;5.28;90.37;99012.16;5028853;28;20017;-74
2023/01/14 12:02:21;;;;;;;0.50;0.50;;;;;;;5.26;90.50;99019.88;5027626;28;20018;-76
2023/01/14 12:04:59;;;;;;;0.47;0.47;;;;;;;5.19;90.51;99019.09;5020591;28;20084;-75
2023/01/14 12:07:52;;;;;;;0.50;0.50;;;;;;;5.14;90.93;99026.00;5043819;28;20030;-75
2023/01/14 12:10:30;;;;;;;0.40;0.40;;;;;;;5.12;91.23;99014.88;5023588;28;20034;-74
2023/01/14 12:19:23;;;;;;;0.50;0.50;;;;;;;5.21;91.81;98999.34;5026380;28;20577;-75
2023/01/14 12:22:25;;;;;;;3.53;3.33;;;;;;;5.17;92.26;98982.25;5009585;28;20038;-75
2023/01/14 12:24:59;;;;;;;0.63;0.63;;;;;;;5.26;92.41;98991.59;5026107;28;20069;-75